createdAt,value
2022-10-01T00:01:15.527Z,92.81
2022-10-01T00:03:50.512Z,91.85
2022-10-01T00:06:24.927Z,92.36
2022-10-01T00:08:59.262Z,92.57
2022-10-01T00:11:34.474Z,93.55
2022-10-01T00:14:09.554Z,92.89
2022-10-01T00:16:45.010Z,92.53
2022-10-01T00:19:19.340Z,92.45
2022-10-01T00:21:53.393Z,92.35
2022-10-01T00:24:27.992Z,93.29
2022-10-01T00:27:02.078Z,93.74
2022-10-01T00:29:37.216Z,93.23
2022-10-01T00:32:12.757Z,92.82
2022-10-01T00:34:47.047Z,92.68
2022-10-01T00:37:22.333Z,93.16
2022-10-01T00:39:56.815Z,94.03
2022-10-01T00:42:30.883Z,94.09
2022-10-01T00:45:05.858Z,93.36
2022-10-01T00:47:44.850Z,92.64
2022-10-01T00:50:24.238Z,92.34
2022-10-01T00:53:03.014Z,92.69
2022-10-01T00:55:41.704Z,93.27
2022-10-01T00:58:16.671Z,94.17
2022-10-01T01:00:52.560Z,93.84
2022-10-01T01:03:28.192Z,93.37
2022-10-01T01:06:03.539Z,92.74
2022-10-01T01:08:37.600Z,93.94
2022-10-01T01:11:19.610Z,95.35
2022-10-01T01:14:00.477Z,95.03
2022-10-01T01:16:39.204Z,94.84
2022-10-01T01:19:26.866Z,94.48
2022-10-01T01:22:05.563Z,94.05
2022-10-01T01:24:50.294Z,93.81
2022-10-01T01:27:34.442Z,93.46
2022-10-01T01:30:12.589Z,92.84
2022-10-01T01:32:53.873Z,92.50
2022-10-01T01:35:32.300Z,93.05
2022-10-01T01:38:11.672Z,93.17
2022-10-01T01:40:51.654Z,93.33
2022-10-01T01:43:31.431Z,93.24
2022-10-01T01:46:10.274Z,93.46
2022-10-01T01:48:51.048Z,93.37
2022-10-01T01:51:33.019Z,92.80
2022-10-01T01:54:07.938Z,93.16
2022-10-01T01:56:42.103Z,92.84
2022-10-01T01:59:18.703Z,93.25
2022-10-01T02:01:54.533Z,93.66
2022-10-01T02:04:33.218Z,93.15
2022-10-01T02:07:25.750Z,92.93
2022-10-01T02:10:12.048Z,93.45
2022-10-01T02:13:01.638Z,93.69
2022-10-01T02:15:43.109Z,93.26
2022-10-01T02:18:29.153Z,93.21
2022-10-01T02:21:12.064Z,93.20
2022-10-01T02:23:50.548Z,92.91
2022-10-01T02:26:26.763Z,92.94
2022-10-01T02:29:04.719Z,93.17
2022-10-01T02:31:39.217Z,93.32
2022-10-01T02:34:20.114Z,93.44
2022-10-01T02:36:56.636Z,93.56
2022-10-01T02:39:34.237Z,92.18
2022-10-01T02:42:10.210Z,92.98
2022-10-01T02:44:46.734Z,94.36
2022-10-01T02:47:24.246Z,94.15
2022-10-01T02:49:59.888Z,93.94
2022-10-01T02:52:41.864Z,92.43
2022-10-01T02:55:20.282Z,93.39
2022-10-01T02:57:54.900Z,92.79
2022-10-01T03:00:29.486Z,94.44
2022-10-01T03:03:03.804Z,95.87
2022-10-01T03:05:39.423Z,95.10
2022-10-01T03:08:13.892Z,93.39
2022-10-01T03:10:48.038Z,94.44
2022-10-01T03:13:23.540Z,95.64
2022-10-01T03:15:57.631Z,95.73
2022-10-01T03:18:32.214Z,95.08
2022-10-01T03:21:07.560Z,95.31
2022-10-01T03:23:41.836Z,93.50
2022-10-01T03:26:15.790Z,94.15
2022-10-01T03:28:50.176Z,95.78
2022-10-01T03:31:24.230Z,97.02
2022-10-01T03:34:00.508Z,96.73
2022-10-01T03:36:35.942Z,95.76
2022-10-01T03:39:10.354Z,95.01
2022-10-01T03:41:44.687Z,94.92
2022-10-01T03:44:19.027Z,94.76
2022-10-01T03:46:53.037Z,95.56
2022-10-01T03:49:27.464Z,96.02
2022-10-01T03:52:03.478Z,96.12
2022-10-01T03:54:39.468Z,95.68
2022-10-01T03:57:13.572Z,95.72
2022-10-01T03:59:47.964Z,95.82
2022-10-01T04:02:22.104Z,95.41
2022-10-01T04:04:56.495Z,95.49
2022-10-01T04:07:31.836Z,95.49
2022-10-01T04:10:07.061Z,94.90
2022-10-01T04:12:41.090Z,94.99
2022-10-01T04:15:16.924Z,95.49
2022-10-01T04:17:51.088Z,95.29
2022-10-01T04:20:25.971Z,95.00
2022-10-01T04:23:01.799Z,95.57
2022-10-01T04:25:36.531Z,95.85
2022-10-01T04:28:13.644Z,96.02
2022-10-01T04:30:48.134Z,96.12
2022-10-01T04:33:22.208Z,96.36
2022-10-01T04:35:56.479Z,96.16
2022-10-01T04:38:31.859Z,95.53
2022-10-01T04:41:06.475Z,95.10
2022-10-01T04:43:40.516Z,95.44
2022-10-01T04:46:16.769Z,96.12
2022-10-01T04:48:50.871Z,96.34
2022-10-01T04:51:25.260Z,95.98
2022-10-01T04:54:00.761Z,95.11
2022-10-01T04:56:35.113Z,95.39
2022-10-01T04:59:09.228Z,96.28
2022-10-01T05:01:43.656Z,100.00
2022-10-01T05:04:17.731Z,99.81
2022-10-01T05:06:52.243Z,96.05
2022-10-01T05:09:27.566Z,92.39
2022-10-01T05:12:02.172Z,90.53
2022-10-01T05:14:36.179Z,91.71
2022-10-01T05:17:10.433Z,91.74
2022-10-01T05:19:44.795Z,93.56
2022-10-01T05:22:19.404Z,96.00
2022-10-01T05:24:54.979Z,96.53
2022-10-01T05:27:29.411Z,95.89
2022-10-01T05:30:04.481Z,95.61
2022-10-01T05:32:39.583Z,95.34
2022-10-01T05:35:13.601Z,95.29
2022-10-01T05:37:47.999Z,96.19
2022-10-01T05:40:27.660Z,96.32
2022-10-01T05:43:03.319Z,95.61
2022-10-01T05:45:37.435Z,95.62
2022-10-01T05:48:12.939Z,96.08
2022-10-01T05:50:47.068Z,95.92
2022-10-01T05:53:22.472Z,95.53
2022-10-01T05:56:00.479Z,95.21
2022-10-01T05:58:35.284Z,94.87
2022-10-01T06:01:09.353Z,94.80
2022-10-01T06:03:44.440Z,95.03
2022-10-01T06:06:22.361Z,100.00
2022-10-01T06:08:56.836Z,95.22
2022-10-01T06:11:32.583Z,97.36
2022-10-01T06:14:07.343Z,91.94
2022-10-01T06:16:41.441Z,94.65
2022-10-01T06:19:17.878Z,90.29
2022-10-01T06:21:52.945Z,90.50
2022-10-01T06:24:27.309Z,91.03
2022-10-01T06:27:02.781Z,91.50
2022-10-01T06:29:37.238Z,92.31
2022-10-01T06:32:14.195Z,92.88
2022-10-01T06:34:48.674Z,92.86
2022-10-01T06:37:22.757Z,93.10
2022-10-01T06:40:00.200Z,93.42
2022-10-01T06:42:35.695Z,94.29
2022-10-01T06:45:10.769Z,94.42
2022-10-01T06:47:45.074Z,94.76
2022-10-01T06:50:19.510Z,94.54
2022-10-01T06:52:54.230Z,94.20
2022-10-01T06:55:31.364Z,94.31
2022-10-01T06:58:09.317Z,95.34
2022-10-01T07:00:44.660Z,95.68
2022-10-01T07:03:20.869Z,95.11
2022-10-01T07:05:55.237Z,95.38
2022-10-01T07:08:29.314Z,95.88
2022-10-01T07:11:05.174Z,95.94
2022-10-01T07:13:40.580Z,96.10
2022-10-01T07:16:15.641Z,96.23
2022-10-01T07:18:50.088Z,96.27
2022-10-01T07:21:25.073Z,96.65
2022-10-01T07:23:59.205Z,96.37
2022-10-01T07:26:34.399Z,100.00
2022-10-01T07:29:10.508Z,96.18
2022-10-01T07:31:44.928Z,95.09
2022-10-01T07:34:19.080Z,94.63
2022-10-01T07:36:54.351Z,95.00
2022-10-01T07:39:28.457Z,95.69
2022-10-01T07:42:03.200Z,96.68
2022-10-01T07:44:38.614Z,96.57
2022-10-01T07:47:12.939Z,96.34
2022-10-01T07:49:47.044Z,97.16
2022-10-01T07:52:21.343Z,96.98
2022-10-01T07:54:55.463Z,97.31
2022-10-01T07:57:29.914Z,97.15
2022-10-01T08:00:09.501Z,97.57
2022-10-01T08:02:48.512Z,98.13
2022-10-01T08:05:24.989Z,98.11
2022-10-01T08:08:00.956Z,97.55
2022-10-01T08:10:36.735Z,97.61
2022-10-01T08:13:15.417Z,97.32
2022-10-01T08:15:53.524Z,98.20
2022-10-01T08:18:27.635Z,97.42
2022-10-01T08:21:02.129Z,98.76
2022-10-01T08:23:36.700Z,97.29
2022-10-01T08:26:11.875Z,94.78
2022-10-01T08:28:45.875Z,94.86
2022-10-01T08:31:21.633Z,95.87
2022-10-01T08:33:55.792Z,97.26
2022-10-01T08:36:30.833Z,97.30
2022-10-01T08:39:05.059Z,97.93
2022-10-01T08:41:51.958Z,97.05
2022-10-01T08:44:33.565Z,96.09
2022-10-01T08:47:14.560Z,97.73
2022-10-01T08:49:54.785Z,97.52
2022-10-01T08:52:32.334Z,98.18
2022-10-01T08:55:11.746Z,97.01
2022-10-01T08:57:50.937Z,98.98
2022-10-01T09:00:25.293Z,98.36
2022-10-01T09:03:06.242Z,98.84
2022-10-01T09:05:53.711Z,98.98
2022-10-01T09:08:45.342Z,100.00
2022-10-01T09:11:33.606Z,98.57
2022-10-01T09:14:34.229Z,95.54
2022-10-01T09:17:20.034Z,95.31
2022-10-01T09:20:08.244Z,95.84
2022-10-01T09:22:46.514Z,94.63
2022-10-01T09:25:23.880Z,94.69
2022-10-01T09:28:03.054Z,95.63
2022-10-01T09:30:38.568Z,94.01
2022-10-01T09:33:17.448Z,93.45
2022-10-01T09:35:57.819Z,93.77
2022-10-01T09:38:37.656Z,94.62
2022-10-01T09:41:14.679Z,94.88
2022-10-01T09:43:48.801Z,95.07
2022-10-01T09:46:24.280Z,95.54
2022-10-01T09:49:03.336Z,95.93
2022-10-01T09:51:44.647Z,93.89
2022-10-01T09:54:23.299Z,94.09
2022-10-01T09:57:10.927Z,94.02
2022-10-01T09:59:50.579Z,95.11
2022-10-01T10:02:29.778Z,94.74
2022-10-01T10:05:07.036Z,94.30
2022-10-01T10:07:47.030Z,92.56
2022-10-01T10:10:26.065Z,92.28
2022-10-01T10:13:03.048Z,91.87
2022-10-01T10:15:41.314Z,91.89
2022-10-01T10:18:23.024Z,90.34
2022-10-01T10:21:00.373Z,91.12
2022-10-01T10:23:36.298Z,91.88
2022-10-01T10:26:21.845Z,91.54
2022-10-01T10:28:57.445Z,91.60
2022-10-01T10:31:40.414Z,91.08
2022-10-01T10:34:18.762Z,90.44
2022-10-01T10:36:58.957Z,89.82
2022-10-01T10:39:37.784Z,90.00
2022-10-01T10:42:16.420Z,89.10
2022-10-01T10:44:52.922Z,90.20
2022-10-01T10:47:28.477Z,89.69
2022-10-01T10:50:06.006Z,87.92
2022-10-01T10:52:44.958Z,87.19
2022-10-01T10:55:26.937Z,86.73
2022-10-01T10:58:11.584Z,87.46
2022-10-01T11:00:47.824Z,88.00
2022-10-01T11:03:27.361Z,88.46
2022-10-01T11:06:10.072Z,87.18
2022-10-01T11:08:45.197Z,86.66
2022-10-01T11:11:37.643Z,85.36
2022-10-01T11:14:24.511Z,83.70
2022-10-01T11:17:27.430Z,80.96
2022-10-01T11:20:20.867Z,80.95
2022-10-01T11:23:04.873Z,80.81
2022-10-01T11:25:49.332Z,81.34
2022-10-01T11:28:38.716Z,81.30
2022-10-01T11:31:19.772Z,80.91
2022-10-01T11:34:08.875Z,80.59
2022-10-01T11:36:55.515Z,80.49
2022-10-01T11:39:33.297Z,81.64
2022-10-01T11:42:12.405Z,80.22
2022-10-01T11:45:00.522Z,80.63
2022-10-01T11:47:41.789Z,81.04
2022-10-01T11:50:20.036Z,82.37
2022-10-01T11:52:59.457Z,79.92
2022-10-01T11:55:58.596Z,78.69
2022-10-01T11:58:52.819Z,77.98
2022-10-01T12:01:35.528Z,78.70
2022-10-01T12:04:18.852Z,77.82
2022-10-01T12:06:58.083Z,76.79
2022-10-01T12:09:40.371Z,77.12
2022-10-01T12:12:20.484Z,76.17
2022-10-01T12:15:06.430Z,76.47
2022-10-01T12:17:46.306Z,76.54
2022-10-01T12:20:26.152Z,78.03
2022-10-01T12:23:03.736Z,77.89
2022-10-01T12:25:49.147Z,77.73
2022-10-01T12:28:32.533Z,78.49
2022-10-01T12:31:14.379Z,79.08
2022-10-01T12:34:04.238Z,79.86
2022-10-01T12:36:50.049Z,80.02
2022-10-01T12:39:37.593Z,78.35
2022-10-01T12:42:33.604Z,76.09
2022-10-01T12:45:17.537Z,74.35
2022-10-01T12:48:03.312Z,73.92
2022-10-01T12:50:50.371Z,72.38
2022-10-01T12:53:37.492Z,71.67
2022-10-01T12:56:17.489Z,73.15
2022-10-01T12:59:08.237Z,73.72
2022-10-01T13:01:59.930Z,71.87
2022-10-01T13:05:17.907Z,72.73
2022-10-01T13:08:22.707Z,70.98
2022-10-01T13:11:06.818Z,68.93
2022-10-01T13:13:41.704Z,68.83
2022-10-01T13:16:25.863Z,68.89
2022-10-01T13:19:07.029Z,68.42
2022-10-01T13:21:55.065Z,68.87
2022-10-01T13:24:41.260Z,68.09
2022-10-01T13:27:22.732Z,68.12
2022-10-01T13:30:02.078Z,66.82
2022-10-01T13:32:51.156Z,65.66
2022-10-01T13:35:34.453Z,66.74
2022-10-01T13:38:15.629Z,66.91
2022-10-01T13:41:01.418Z,65.71
2022-10-01T13:43:36.943Z,67.24
2022-10-01T13:46:12.269Z,67.33
2022-10-01T13:48:49.703Z,68.10
2022-10-01T13:51:35.185Z,68.19
2022-10-01T13:54:18.786Z,69.27
2022-10-01T13:56:54.339Z,68.93
2022-10-01T13:59:35.885Z,70.90
2022-10-01T14:02:32.131Z,71.10
2022-10-01T14:05:25.478Z,72.31
2022-10-01T14:08:11.942Z,71.97
2022-10-01T14:11:09.991Z,71.97
2022-10-01T14:14:05.316Z,73.90
2022-10-01T14:16:43.484Z,72.98
2022-10-01T14:19:22.020Z,73.30
2022-10-01T14:22:21.511Z,72.89
2022-10-01T14:25:27.544Z,72.39
2022-10-01T14:28:22.329Z,72.22
2022-10-01T14:31:07.027Z,73.11
2022-10-01T14:34:04.357Z,73.93
2022-10-01T14:36:44.501Z,75.49
2022-10-01T14:39:20.710Z,77.80
2022-10-01T14:41:56.737Z,78.34
2022-10-01T14:44:32.809Z,79.32
2022-10-01T20:10:06.039Z,86.31
2022-10-01T21:25:33.329Z,84.02
2022-10-01T21:28:18.704Z,84.02
2022-10-01T21:31:08.069Z,86.68
2022-10-01T21:33:52.040Z,85.97
2022-10-01T21:36:34.544Z,85.20
2022-10-01T21:39:15.613Z,86.13
2022-10-01T21:42:04.725Z,86.72
2022-10-01T21:45:01.074Z,86.99
2022-10-01T21:47:50.861Z,86.95
2022-10-01T21:50:37.199Z,86.24
2022-10-01T21:53:44.061Z,86.21
2022-10-01T21:56:39.676Z,86.07
2022-10-01T21:59:33.105Z,86.15
2022-10-01T22:02:19.426Z,86.37
2022-10-01T22:04:57.984Z,85.28
2022-10-01T22:07:38.550Z,84.83
2022-10-01T22:10:17.398Z,86.02
2022-10-01T22:12:55.092Z,85.67
2022-10-01T22:15:40.632Z,85.05
2022-10-01T22:18:20.076Z,85.47
2022-10-01T22:20:57.496Z,84.63
2022-10-01T22:23:37.744Z,85.23
2022-10-01T22:26:14.294Z,85.42
2022-10-01T22:28:51.966Z,84.86
2022-10-01T22:31:36.457Z,84.86
2022-10-01T22:34:15.955Z,84.51
2022-10-01T22:36:55.168Z,83.99
2022-10-01T22:39:33.516Z,83.75
2022-10-01T22:42:12.327Z,83.81
2022-10-01T22:44:48.072Z,84.42
2022-10-01T22:47:40.312Z,85.24
2022-10-01T22:50:29.581Z,84.71
2022-10-01T22:53:28.054Z,84.89
2022-10-01T22:56:02.333Z,84.53
2022-10-01T22:59:01.048Z,85.18
2022-10-01T23:01:46.449Z,84.07
2022-10-01T23:04:36.626Z,85.44
2022-10-01T23:07:19.926Z,85.29
2022-10-01T23:10:01.921Z,84.00
2022-10-01T23:12:46.971Z,84.50
2022-10-01T23:15:33.411Z,85.06
2022-10-01T23:18:18.076Z,86.33
2022-10-01T23:21:08.397Z,83.93
2022-10-01T23:23:47.682Z,84.56
2022-10-01T23:26:36.511Z,84.63
2022-10-01T23:29:32.199Z,86.62
2022-10-01T23:32:21.725Z,85.09
2022-10-01T23:35:04.677Z,86.03
2022-10-01T23:37:58.162Z,86.95
2022-10-01T23:40:35.687Z,85.60
2022-10-01T23:43:17.526Z,85.28
2022-10-01T23:45:59.371Z,85.79
2022-10-01T23:48:39.819Z,86.62
2022-10-01T23:51:20.262Z,86.24
2022-10-01T23:54:00.301Z,86.72
2022-10-01T23:56:51.405Z,86.14
2022-10-01T23:59:32.570Z,86.54
